createdAt,value
2018-07-25T00:01:05.208Z,33.07
2018-07-25T00:03:33.495Z,32.13
2018-07-25T00:06:01.707Z,31.77
2018-07-25T00:08:29.931Z,30.03
2018-07-25T00:10:58.145Z,40.43
2018-07-25T00:13:27.230Z,33.70
2018-07-25T00:15:55.837Z,33.60
2018-07-25T00:18:24.055Z,31.93
2018-07-25T00:20:52.305Z,34.90
2018-07-25T00:23:20.542Z,38.13
2018-07-25T00:25:48.742Z,33.80
2018-07-25T00:28:16.947Z,41.60
2018-07-25T00:30:45.168Z,41.70
2018-07-25T00:33:13.372Z,46.83
2018-07-25T00:35:41.574Z,38.43
2018-07-25T00:38:09.859Z,45.50
2018-07-25T00:40:38.191Z,39.80
2018-07-25T00:43:06.579Z,45.30
2018-07-25T00:45:34.806Z,44.57
2018-07-25T00:48:03.058Z,51.80
2018-07-25T00:50:31.298Z,43.17
2018-07-25T00:52:59.507Z,58.77
2018-07-25T00:55:27.764Z,38.17
2018-07-25T00:57:56.164Z,41.90
2018-07-25T01:00:24.365Z,43.30
2018-07-25T01:02:52.587Z,50.70
2018-07-25T01:05:20.798Z,48.60
2018-07-25T01:07:48.998Z,39.87
2018-07-25T01:10:17.214Z,39.03
2018-07-25T01:12:45.502Z,58.57
2018-07-25T01:15:13.714Z,53.33
2018-07-25T01:17:41.956Z,45.13
2018-07-25T01:20:10.186Z,55.70
2018-07-25T01:22:38.398Z,40.97
2018-07-25T01:25:06.647Z,50.33
2018-07-25T01:27:34.898Z,57.07
2018-07-25T01:30:03.155Z,52.77
2018-07-25T01:32:31.362Z,49.37
2018-07-25T01:34:59.574Z,42.50
2018-07-25T01:37:27.851Z,47.57
2018-07-25T01:39:56.075Z,42.43
2018-07-25T01:42:24.290Z,49.33
2018-07-25T01:44:52.513Z,51.97
2018-07-25T01:47:20.714Z,49.87
2018-07-25T01:49:48.918Z,46.00
2018-07-25T01:52:17.134Z,54.47
2018-07-25T01:54:45.338Z,50.70
2018-07-25T01:57:13.634Z,46.87
2018-07-25T01:59:41.850Z,45.00
2018-07-25T02:02:10.163Z,46.27
2018-07-25T02:04:38.423Z,40.20
2018-07-25T02:07:06.886Z,45.50
2018-07-25T02:09:35.192Z,41.53
2018-07-25T02:12:03.445Z,55.63
2018-07-25T02:14:31.654Z,44.73
2018-07-25T02:16:59.903Z,57.60
2018-07-25T02:19:28.181Z,48.83
2018-07-25T02:21:56.356Z,48.23
2018-07-25T02:24:24.576Z,46.30
2018-07-25T02:26:52.782Z,46.27
2018-07-25T02:29:20.989Z,47.43
2018-07-25T02:31:49.302Z,51.20
2018-07-25T02:34:21.834Z,62.37
2018-07-25T02:36:51.164Z,55.13
2018-07-25T02:39:19.378Z,66.47
2018-07-25T02:41:47.595Z,69.27
2018-07-25T02:44:16.035Z,69.37
2018-07-25T02:46:44.307Z,71.57
2018-07-25T02:49:12.540Z,67.87
2018-07-25T02:51:40.776Z,85.83
2018-07-25T02:54:09.095Z,54.17
2018-07-25T02:56:37.341Z,60.17
2018-07-25T02:59:05.603Z,62.23
2018-07-25T03:01:34.248Z,54.27
2018-07-25T03:04:02.481Z,54.73
2018-07-25T03:06:30.939Z,50.70
2018-07-25T03:08:59.170Z,44.70
2018-07-25T03:11:27.399Z,51.17
2018-07-25T03:13:55.626Z,60.50
2018-07-25T03:16:23.832Z,50.17
2018-07-25T03:18:52.050Z,58.97
2018-07-25T03:21:20.295Z,48.73
2018-07-25T03:23:48.620Z,58.10
2018-07-25T03:26:16.828Z,59.43
2018-07-25T03:28:45.038Z,59.27
2018-07-25T03:31:13.260Z,51.10
2018-07-25T03:33:41.453Z,58.23
2018-07-25T03:36:09.692Z,56.73
2018-07-25T03:38:37.915Z,72.43
2018-07-25T03:41:06.414Z,53.80
2018-07-25T03:43:34.638Z,60.90
2018-07-25T03:46:02.871Z,57.50
2018-07-25T03:48:31.112Z,55.60
2018-07-25T03:50:59.327Z,55.67
2018-07-25T03:53:27.526Z,53.47
2018-07-25T03:55:55.735Z,42.37
2018-07-25T03:58:23.970Z,44.43
2018-07-25T04:00:52.217Z,47.87
2018-07-25T04:03:51.365Z,48.63
2018-07-25T04:06:19.622Z,46.07
2018-07-25T04:08:47.847Z,57.53
2018-07-25T04:11:16.071Z,54.73
2018-07-25T04:13:44.290Z,56.53
2018-07-25T04:16:12.519Z,49.17
2018-07-25T04:18:40.738Z,51.40
2018-07-25T04:21:08.958Z,47.70
2018-07-25T04:23:37.159Z,48.50
2018-07-25T04:26:05.450Z,51.63
2018-07-25T04:28:33.655Z,76.87
2018-07-25T04:31:01.870Z,70.03
2018-07-25T04:33:30.100Z,112.03
2018-07-25T04:35:58.310Z,119.13
2018-07-25T04:38:26.576Z,55.93
2018-07-25T04:40:54.799Z,46.77
2018-07-25T04:43:23.006Z,50.93
2018-07-25T04:45:51.226Z,52.83
2018-07-25T04:48:19.438Z,66.50
2018-07-25T04:50:47.730Z,40.47
2018-07-25T04:53:15.934Z,47.00
2018-07-25T04:55:44.153Z,43.83
2018-07-25T04:58:12.371Z,44.70
2018-07-25T05:00:40.608Z,56.37
2018-07-25T05:03:08.842Z,50.20
2018-07-25T05:05:37.070Z,44.30
2018-07-25T05:08:05.367Z,46.37
2018-07-25T05:10:33.590Z,41.13
2018-07-25T05:13:01.816Z,47.53
2018-07-25T05:15:30.069Z,50.97
2018-07-25T05:17:58.366Z,42.23
2018-07-25T05:20:26.675Z,52.63
2018-07-25T05:22:55.190Z,61.87
2018-07-25T05:25:24.663Z,51.60
2018-07-25T05:27:52.906Z,42.90
2018-07-25T05:30:21.167Z,47.37
2018-07-25T05:32:49.398Z,39.23
2018-07-25T05:35:17.620Z,50.47
2018-07-25T05:37:45.843Z,47.43
2018-07-25T05:40:14.086Z,36.27
2018-07-25T05:42:42.303Z,37.33
2018-07-25T05:45:10.546Z,45.60
2018-07-25T05:47:38.783Z,47.43
2018-07-25T05:50:07.078Z,42.73
2018-07-25T05:52:35.351Z,45.53
2018-07-25T05:55:04.062Z,43.70
2018-07-25T05:57:32.282Z,39.53
2018-07-25T06:00:00.520Z,46.63
2018-07-25T06:02:28.728Z,42.80
2018-07-25T06:04:56.958Z,39.33
2018-07-25T06:07:25.166Z,48.53
2018-07-25T06:09:53.398Z,46.57
2018-07-25T06:12:21.632Z,47.60
2018-07-25T06:14:49.847Z,42.30
2018-07-25T06:17:18.100Z,42.80
2018-07-25T06:19:46.299Z,47.80
2018-07-25T06:22:14.538Z,42.50
2018-07-25T06:24:42.779Z,53.17
2018-07-25T06:27:10.995Z,49.87
2018-07-25T06:29:39.202Z,51.83
2018-07-25T06:32:07.438Z,53.10
2018-07-25T06:34:35.671Z,43.30
2018-07-25T06:37:03.890Z,49.20
2018-07-25T06:39:32.109Z,44.93
2018-07-25T06:42:00.346Z,48.83
2018-07-25T06:44:28.571Z,42.20
2018-07-25T06:46:56.815Z,43.40
2018-07-25T06:49:25.035Z,38.80
2018-07-25T06:51:53.271Z,44.87
2018-07-25T06:54:21.479Z,42.30
2018-07-25T06:56:49.712Z,47.33
2018-07-25T06:59:17.979Z,46.40
2018-07-25T07:01:46.235Z,43.23
2018-07-25T07:04:14.480Z,48.07
2018-07-25T07:06:42.732Z,38.70
2018-07-25T07:09:11.698Z,45.30
2018-07-25T07:11:39.955Z,53.13
2018-07-25T07:14:08.204Z,51.57
2018-07-25T07:16:36.519Z,45.17
2018-07-25T07:19:04.799Z,44.73
2018-07-25T07:21:33.259Z,39.10
2018-07-25T07:24:01.489Z,48.10
2018-07-25T07:26:29.726Z,43.33
2018-07-25T07:28:58.056Z,47.93
2018-07-25T07:31:26.395Z,44.03
2018-07-25T07:33:54.621Z,40.73
2018-07-25T07:36:23.344Z,43.13
2018-07-25T07:38:51.611Z,34.67
2018-07-25T07:41:19.887Z,36.73
2018-07-25T07:43:48.210Z,42.33
2018-07-25T07:46:16.534Z,34.53
2018-07-25T07:48:44.782Z,54.50
2018-07-25T07:51:13.040Z,34.20
2018-07-25T07:53:41.274Z,53.70
2018-07-25T07:56:09.534Z,33.93
2018-07-25T07:58:37.843Z,30.77
2018-07-25T08:01:06.097Z,33.50
2018-07-25T08:03:34.322Z,31.20
2018-07-25T08:06:02.732Z,30.67
2018-07-25T08:08:31.105Z,37.10
2018-07-25T08:10:59.342Z,34.53
2018-07-25T08:13:27.609Z,39.17
2018-07-25T08:15:55.899Z,42.17
2018-07-25T08:18:24.127Z,38.23
2018-07-25T08:20:52.395Z,46.80
2018-07-25T08:23:20.668Z,29.70
2018-07-25T08:25:49.003Z,37.77
2018-07-25T08:28:17.202Z,35.93
2018-07-25T08:30:45.454Z,39.17
2018-07-25T08:33:13.664Z,36.40
2018-07-25T08:35:41.903Z,32.70
2018-07-25T08:38:10.142Z,36.83
2018-07-25T08:40:38.390Z,36.27
2018-07-25T08:43:06.939Z,37.60
2018-07-25T08:45:35.204Z,31.40
2018-07-25T08:48:03.431Z,27.87
2018-07-25T08:50:31.672Z,41.33
2018-07-25T08:52:59.916Z,28.83
2018-07-25T08:55:28.211Z,31.47
2018-07-25T08:57:56.447Z,33.23
2018-07-25T09:00:24.710Z,29.97
2018-07-25T09:02:52.995Z,27.80
2018-07-25T09:05:21.223Z,30.20
2018-07-25T09:07:49.452Z,25.30
2018-07-25T09:10:17.687Z,26.90
2018-07-25T09:12:45.915Z,21.83
2018-07-25T09:15:14.116Z,22.20
2018-07-25T09:17:42.366Z,24.60
2018-07-25T09:20:10.601Z,24.50
2018-07-25T09:22:38.799Z,31.90
2018-07-25T09:25:07.068Z,21.13
2018-07-25T09:27:35.262Z,24.23
2018-07-25T09:30:03.513Z,22.00
2018-07-25T09:32:31.759Z,26.17
2018-07-25T09:34:59.975Z,21.20
2018-07-25T09:37:28.197Z,18.37
2018-07-25T09:39:56.447Z,25.87
2018-07-25T09:42:24.702Z,20.57
2018-07-25T09:44:52.914Z,28.53
2018-07-25T09:47:21.138Z,29.23
2018-07-25T09:49:49.334Z,16.03
2018-07-25T09:52:17.538Z,20.43
2018-07-25T09:54:45.781Z,19.17
2018-07-25T09:57:13.970Z,19.80
2018-07-25T09:59:42.209Z,15.93
2018-07-25T10:02:10.403Z,22.70
2018-07-25T10:04:38.612Z,16.53
2018-07-25T10:07:06.854Z,16.57
2018-07-25T10:09:35.062Z,20.30
2018-07-25T10:12:03.325Z,17.23
2018-07-25T10:14:31.533Z,15.63
2018-07-25T10:16:59.763Z,17.80
2018-07-25T10:19:27.971Z,21.20
2018-07-25T10:21:56.215Z,21.77
2018-07-25T10:24:24.426Z,17.20
2018-07-25T10:26:52.744Z,17.10
2018-07-25T10:29:20.942Z,20.50
2018-07-25T10:31:49.168Z,17.87
2018-07-25T10:34:17.367Z,18.60
2018-07-25T10:36:45.587Z,15.40
2018-07-25T10:39:13.825Z,17.90
2018-07-25T10:41:42.023Z,16.33
2018-07-25T10:44:10.240Z,17.00
2018-07-25T10:46:38.448Z,13.83
2018-07-25T10:49:06.683Z,15.23
2018-07-25T10:51:34.889Z,20.23
2018-07-25T10:54:03.108Z,16.03
2018-07-25T10:56:31.318Z,16.60
2018-07-25T10:58:59.575Z,15.30
2018-07-25T11:01:27.894Z,16.67
2018-07-25T11:03:56.121Z,16.63
2018-07-25T11:06:24.338Z,16.53
2018-07-25T11:09:31.605Z,20.80
2018-07-25T11:12:01.248Z,15.50
2018-07-25T11:14:29.461Z,19.43
2018-07-25T11:16:57.699Z,16.87
2018-07-25T11:19:25.934Z,15.17
2018-07-25T11:21:54.182Z,14.23
2018-07-25T11:24:22.428Z,17.83
2018-07-25T11:26:50.662Z,14.93
2018-07-25T11:29:18.888Z,13.37
2018-07-25T11:31:47.131Z,14.83
2018-07-25T11:34:15.342Z,19.60
2018-07-25T11:36:43.591Z,13.60
2018-07-25T11:39:13.079Z,15.27
2018-07-25T11:41:41.298Z,15.90
2018-07-25T11:44:09.521Z,16.70
2018-07-25T11:46:37.763Z,14.23
2018-07-25T11:49:06.220Z,14.10
2018-07-25T11:51:34.431Z,13.37
2018-07-25T11:54:02.659Z,14.20
2018-07-25T11:56:30.930Z,12.50
2018-07-25T11:58:59.166Z,13.10
2018-07-25T12:01:27.562Z,12.80
2018-07-25T12:03:55.971Z,14.83
2018-07-25T12:06:24.628Z,12.40
2018-07-25T12:08:53.189Z,12.93
2018-07-25T12:11:21.415Z,17.07
2018-07-25T12:13:49.823Z,26.83
2018-07-25T12:16:18.257Z,14.23
2018-07-25T12:18:46.754Z,14.37
2018-07-25T12:21:15.160Z,15.07
2018-07-25T12:23:43.338Z,14.73
2018-07-25T12:26:11.583Z,13.83
2018-07-25T12:28:39.868Z,14.43
2018-07-25T12:31:08.292Z,17.37
2018-07-25T12:33:36.618Z,19.80
2018-07-25T12:36:05.434Z,13.00
2018-07-25T12:38:33.638Z,13.00
2018-07-25T12:41:01.890Z,13.60
2018-07-25T12:43:30.111Z,19.23
2018-07-25T12:45:58.397Z,15.23
2018-07-25T12:48:26.667Z,13.43
2018-07-25T12:50:54.950Z,13.90
2018-07-25T12:53:23.169Z,14.47
2018-07-25T12:55:51.399Z,13.50
2018-07-25T12:58:19.610Z,13.30
2018-07-25T13:00:47.838Z,14.77
2018-07-25T13:03:16.053Z,13.47
2018-07-25T13:05:44.278Z,13.93
2018-07-25T13:08:12.499Z,12.47
2018-07-25T13:10:40.735Z,12.87
2018-07-25T13:13:08.974Z,13.30
2018-07-25T13:15:37.260Z,16.43
2018-07-25T13:18:05.861Z,11.60
2018-07-25T13:20:34.091Z,12.57
2018-07-25T13:23:02.336Z,13.07
2018-07-25T13:28:20.639Z,12.77
2018-07-25T13:30:48.876Z,12.50
2018-07-25T13:33:17.087Z,14.40
2018-07-25T13:35:45.317Z,12.60
2018-07-25T13:38:13.533Z,13.20
2018-07-25T13:40:41.732Z,16.30
2018-07-25T13:43:09.982Z,12.17
2018-07-25T13:45:38.301Z,14.73
2018-07-25T13:48:06.466Z,12.87
2018-07-25T13:50:34.688Z,12.43
2018-07-25T13:53:03.210Z,12.30
2018-07-25T13:55:31.410Z,23.10
2018-07-25T13:57:59.881Z,18.30
2018-07-25T14:00:28.082Z,13.03
2018-07-25T14:02:56.299Z,15.40
2018-07-25T14:05:24.508Z,13.17
2018-07-25T14:07:52.726Z,16.47
2018-07-25T14:10:20.969Z,16.80
2018-07-25T14:12:49.196Z,15.17
2018-07-25T14:15:17.406Z,14.03
2018-07-25T14:17:45.639Z,12.87
2018-07-25T14:20:13.854Z,13.07
2018-07-25T14:22:42.066Z,12.20
2018-07-25T14:25:10.323Z,10.33
2018-07-25T14:27:38.750Z,10.20
2018-07-25T14:30:07.126Z,9.03
2018-07-25T14:32:35.537Z,7.47
2018-07-25T14:35:03.800Z,7.40
2018-07-25T14:37:32.030Z,8.37
2018-07-25T14:40:00.432Z,10.70
2018-07-25T14:42:28.437Z,8.43
2018-07-25T14:44:56.750Z,9.90
2018-07-25T14:47:24.958Z,9.23
2018-07-25T14:49:53.158Z,8.20
2018-07-25T14:52:21.390Z,9.10
2018-07-25T14:54:49.570Z,8.87
2018-07-25T14:57:17.778Z,9.00
2018-07-25T14:59:45.982Z,10.90
2018-07-25T15:02:14.237Z,9.00
2018-07-25T15:04:42.668Z,9.37
2018-07-25T15:07:11.890Z,9.53
2018-07-25T15:09:40.119Z,9.87
2018-07-25T15:12:08.600Z,10.97
2018-07-25T15:14:36.833Z,10.47
2018-07-25T15:17:05.062Z,11.13
2018-07-25T15:19:33.558Z,21.93
2018-07-25T15:22:01.882Z,12.93
2018-07-25T15:24:30.071Z,17.23
2018-07-25T15:26:58.278Z,18.83
2018-07-25T15:29:26.507Z,14.87
2018-07-25T15:31:54.678Z,12.63
2018-07-25T15:34:22.909Z,17.80
2018-07-25T15:36:52.363Z,14.87
2018-07-25T15:39:24.662Z,13.57
2018-07-25T15:41:53.758Z,14.00
2018-07-25T15:44:22.965Z,15.00
2018-07-25T15:46:51.246Z,14.80
2018-07-25T15:49:19.426Z,16.10
2018-07-25T15:51:47.671Z,19.47
2018-07-25T15:54:15.957Z,20.90
2018-07-25T15:56:44.191Z,13.60
2018-07-25T15:59:12.486Z,16.60
2018-07-25T16:01:40.746Z,12.90
2018-07-25T16:04:09.105Z,13.07
2018-07-25T16:06:37.379Z,16.33
2018-07-25T16:09:08.961Z,13.30
2018-07-25T16:11:37.609Z,20.70
2018-07-25T16:14:05.843Z,12.23
2018-07-25T16:16:34.069Z,12.73
2018-07-25T16:19:02.334Z,15.40
2018-07-25T16:21:30.628Z,15.60
2018-07-25T16:23:58.923Z,11.77
2018-07-25T16:26:27.110Z,15.03
2018-07-25T16:28:55.546Z,14.53
2018-07-25T16:31:23.774Z,14.13
2018-07-25T16:33:52.015Z,10.10
2018-07-25T16:36:20.305Z,15.63
2018-07-25T16:38:48.514Z,9.40
2018-07-25T16:41:16.726Z,18.03
2018-07-25T16:43:44.984Z,9.40
2018-07-25T16:46:13.177Z,10.13
2018-07-25T16:48:41.374Z,10.50
2018-07-25T16:54:41.315Z,12.10
2018-07-25T16:57:09.578Z,12.67
2018-07-25T16:59:37.822Z,15.40
2018-07-25T17:02:06.138Z,9.33
2018-07-25T17:04:34.333Z,16.90
2018-07-25T17:07:02.558Z,15.30
2018-07-25T17:09:30.817Z,16.03
2018-07-25T17:11:59.061Z,11.37
2018-07-25T17:14:27.284Z,11.90
2018-07-25T17:16:55.542Z,10.90
2018-07-25T17:19:23.758Z,12.33
2018-07-25T17:21:51.970Z,11.00
2018-07-25T17:24:20.193Z,11.67
2018-07-25T17:26:48.402Z,11.57
2018-07-25T17:29:16.674Z,15.40
2018-07-25T17:31:44.885Z,22.70
2018-07-25T17:34:13.089Z,15.70
2018-07-25T17:36:41.302Z,23.63
2018-07-25T17:39:10.975Z,14.57
2018-07-25T17:41:39.723Z,14.20
2018-07-25T17:44:07.950Z,13.37
2018-07-25T17:46:36.190Z,12.20
2018-07-25T17:49:04.443Z,13.90
2018-07-25T17:51:32.646Z,14.30
2018-07-25T17:54:00.870Z,19.87
2018-07-25T17:56:29.108Z,19.33
2018-07-25T17:58:57.298Z,21.10
2018-07-25T18:01:25.538Z,14.67
2018-07-25T18:03:53.799Z,16.00
2018-07-25T18:06:22.046Z,24.63
2018-07-25T18:08:50.262Z,20.53
2018-07-25T18:11:18.463Z,17.83
2018-07-25T18:13:51.954Z,14.50
2018-07-25T18:16:20.162Z,17.33
2018-07-25T18:18:48.362Z,16.10
2018-07-25T18:21:16.591Z,25.10
2018-07-25T18:23:44.797Z,17.53
2018-07-25T18:26:13.010Z,14.20
2018-07-25T18:28:41.213Z,15.70
2018-07-25T18:31:09.446Z,17.03
2018-07-25T18:33:37.644Z,13.77
2018-07-25T18:36:05.857Z,27.83
2018-07-25T18:38:34.067Z,17.67
2018-07-25T18:41:02.285Z,21.33
2018-07-25T18:43:30.518Z,16.70
2018-07-25T18:45:58.720Z,12.27
2018-07-25T18:48:26.941Z,26.67
2018-07-25T18:50:55.154Z,20.97
2018-07-25T18:53:23.370Z,19.63
2018-07-25T18:55:51.582Z,17.50
2018-07-25T18:58:19.827Z,19.13
2018-07-25T19:00:48.059Z,15.40
2018-07-25T19:03:16.260Z,17.30
2018-07-25T19:05:44.466Z,15.97
2018-07-25T19:08:12.694Z,19.93
2018-07-25T19:10:40.939Z,14.03
2018-07-25T19:13:14.458Z,10.87
2018-07-25T19:15:42.665Z,14.00
2018-07-25T19:18:10.866Z,14.40
2018-07-25T19:20:39.079Z,16.10
2018-07-25T19:23:07.262Z,23.60
2018-07-25T19:25:35.471Z,20.33
2018-07-25T19:28:03.684Z,17.57
2018-07-25T19:30:31.889Z,19.33
2018-07-25T19:33:00.102Z,15.27
2018-07-25T19:35:28.318Z,17.23
2018-07-25T19:37:56.530Z,11.77
2018-07-25T19:40:24.741Z,13.40
2018-07-25T19:42:53.014Z,15.07
2018-07-25T19:45:21.281Z,15.53
2018-07-25T19:47:49.492Z,10.27
2018-07-25T19:50:17.959Z,11.30
2018-07-25T19:52:46.110Z,11.63
2018-07-25T19:55:14.322Z,12.00
2018-07-25T19:57:42.570Z,13.00
2018-07-25T20:00:16.380Z,14.00
2018-07-25T20:02:39.018Z,16.17
2018-07-25T20:05:07.650Z,11.90
2018-07-25T20:07:36.147Z,18.60
2018-07-25T20:10:04.606Z,12.57
2018-07-25T20:12:32.869Z,24.23
2018-07-25T20:15:06.326Z,20.17
2018-07-25T20:17:34.534Z,26.20
2018-07-25T20:20:02.783Z,33.10
2018-07-25T20:22:31.003Z,20.07
2018-07-25T20:24:59.455Z,30.57
2018-07-25T20:27:27.678Z,29.10
2018-07-25T20:29:55.882Z,22.23
2018-07-25T20:32:24.135Z,23.63
2018-07-25T20:34:52.350Z,23.80
2018-07-25T20:37:20.615Z,20.43
2018-07-25T20:39:48.814Z,26.30
2018-07-25T20:42:17.081Z,33.37
2018-07-25T20:44:45.277Z,22.30
2018-07-25T20:47:13.545Z,24.90
2018-07-25T20:49:41.761Z,25.30
2018-07-25T20:52:09.983Z,20.87
2018-07-25T20:54:38.186Z,16.27
2018-07-25T20:57:06.406Z,23.70
2018-07-25T20:59:34.652Z,17.03
2018-07-25T21:02:02.854Z,23.13
2018-07-25T21:04:31.083Z,18.57
2018-07-25T21:06:59.286Z,23.70
2018-07-25T21:09:27.494Z,31.70
2018-07-25T21:11:55.710Z,17.10
2018-07-25T21:14:23.960Z,21.10
2018-07-25T21:16:52.178Z,31.47
2018-07-25T21:19:20.394Z,24.27
2018-07-25T21:21:48.681Z,20.90
2018-07-25T21:24:16.842Z,23.87
2018-07-25T21:26:45.055Z,20.67
2018-07-25T21:29:13.282Z,19.77
2018-07-25T21:31:41.486Z,20.23
2018-07-25T21:34:09.722Z,23.30
2018-07-25T21:36:37.949Z,19.83
2018-07-25T21:39:08.570Z,19.60
2018-07-25T21:41:36.777Z,25.57
2018-07-25T21:44:05.027Z,21.87
2018-07-25T21:46:33.321Z,20.93
2018-07-25T21:49:01.515Z,19.97
2018-07-25T21:51:29.721Z,23.17
2018-07-25T21:53:57.945Z,18.90
2018-07-25T21:56:26.220Z,19.77
2018-07-25T21:58:54.491Z,26.83
2018-07-25T22:01:22.698Z,18.53
2018-07-25T22:03:51.012Z,23.40
2018-07-25T22:06:19.137Z,17.27
2018-07-25T22:08:47.347Z,27.17
2018-07-25T22:11:15.580Z,19.60
2018-07-25T22:13:49.090Z,18.83
2018-07-25T22:16:17.291Z,16.13
2018-07-25T22:18:45.930Z,16.10
2018-07-25T22:21:14.463Z,15.60
2018-07-25T22:23:42.683Z,16.03
2018-07-25T22:26:10.881Z,20.23
2018-07-25T22:28:39.160Z,16.93
2018-07-25T22:31:07.369Z,19.07
2018-07-25T22:33:35.587Z,18.53
2018-07-25T22:36:03.942Z,19.77
2018-07-25T22:38:32.165Z,19.30
2018-07-25T22:41:00.388Z,16.53
2018-07-25T22:43:28.631Z,18.43
2018-07-25T22:45:56.901Z,21.53
2018-07-25T22:48:25.200Z,23.97
2018-07-25T22:50:53.446Z,20.23
2018-07-25T22:53:21.658Z,21.47
2018-07-25T22:55:49.950Z,24.00
2018-07-25T22:58:18.156Z,20.20
2018-07-25T23:00:46.382Z,23.87
2018-07-25T23:03:14.594Z,25.53
2018-07-25T23:05:42.802Z,22.23
2018-07-25T23:08:11.032Z,24.70
2018-07-25T23:10:39.257Z,26.13
2018-07-25T23:13:07.461Z,21.00
2018-07-25T23:15:35.688Z,29.27
2018-07-25T23:18:03.934Z,22.40
2018-07-25T23:20:32.134Z,29.53
2018-07-25T23:23:01.203Z,22.83
2018-07-25T23:25:29.803Z,28.03
2018-07-25T23:27:59.105Z,30.50
2018-07-25T23:30:28.537Z,30.93
2018-07-25T23:32:56.765Z,30.73
2018-07-25T23:35:24.982Z,30.90
2018-07-25T23:37:53.212Z,36.60
2018-07-25T23:40:21.482Z,33.77
2018-07-25T23:42:50.222Z,32.80
2018-07-25T23:45:18.768Z,33.10
2018-07-25T23:47:46.977Z,31.33
2018-07-25T23:50:15.194Z,28.83
2018-07-25T23:52:43.409Z,35.23
2018-07-25T23:55:11.622Z,35.00
2018-07-25T23:57:39.854Z,49.63
